Time;durP1;ratioP1;P1;durP2;ratioP2;P2;SDS_P1;SDS_P2;PMS_P1;PMS_P2;Temp;Humidity;BMP_temperature;BMP_pressure;BME280_temperature;BME280_humidity;BME280_pressure;Samples;Min_cycle;Max_cycle;Signal;HPM_P1;HPM_P2
2022/02/26 00:00:21;;;;;;;10.82;3.98;;;;;;;2.26;79.90;99951.78;1744763;81;20997;-66
2022/02/26 00:02:50;;;;;;;14.15;4.70;;;;;;;2.23;79.88;99953.11;1741147;81;21070;-66
2022/02/26 00:05:16;;;;;;;13.78;4.50;;;;;;;2.26;79.93;99954.80;1731130;81;21001;-66
2022/02/26 00:07:44;;;;;;;8.88;4.70;;;;;;;2.28;80.04;99956.50;1729048;81;21916;-66
2022/02/26 00:10:10;;;;;;;8.83;4.00;;;;;;;2.32;80.11;99959.45;1741752;81;21029;-66
2022/02/26 00:12:37;;;;;;;10.63;4.50;;;;;;;2.32;80.00;99963.31;1733906;81;21072;-66
2022/02/26 00:15:05;;;;;;;17.37;4.83;;;;;;;2.31;80.03;99968.06;1735615;81;21555;-66
2022/02/26 00:17:34;;;;;;;8.78;4.12;;;;;;;2.22;79.90;99974.60;1730414;81;20956;-66
2022/02/26 00:20:02;;;;;;;9.65;4.70;;;;;;;2.20;80.10;99978.91;1733145;80;22240;-66
2022/02/26 00:22:29;;;;;;;14.87;4.95;;;;;;;2.15;80.05;99978.08;1732670;81;21065;-65
2022/02/26 00:24:55;;;;;;;11.30;4.65;;;;;;;2.13;80.14;99978.52;1744468;81;21503;-66
2022/02/26 00:27:22;;;;;;;13.47;4.73;;;;;;;2.11;80.15;99979.00;1741279;81;21040;-66
2022/02/26 00:29:49;;;;;;;17.75;4.62;;;;;;;2.14;80.23;99989.27;1741674;81;21637;-66
2022/02/26 00:32:15;;;;;;;9.77;4.20;;;;;;;2.15;80.24;99998.69;1734101;81;21061;-66
2022/02/26 00:34:42;;;;;;;13.97;4.40;;;;;;;2.15;80.33;100010.28;1735426;81;21060;-66
2022/02/26 00:37:09;;;;;;;11.03;4.95;;;;;;;2.17;80.40;100012.42;1729391;81;21629;-66
2022/02/26 00:39:35;;;;;;;11.57;4.42;;;;;;;2.17;80.38;100030.45;1737901;81;22293;-65
2022/02/26 00:42:03;;;;;;;6.53;3.25;;;;;;;2.18;80.39;100037.31;1739987;81;21001;-66
2022/02/26 00:44:29;;;;;;;;;;;;;;;2.19;80.44;100040.33;1716863;81;21065;-66
2022/02/26 00:46:56;;;;;;;12.93;3.85;;;;;;;2.18;80.48;100042.46;1746654;81;20102;-66
2022/02/26 00:52:08;;;;;;;9.10;3.90;;;;;;;2.17;80.52;100053.64;1735528;81;21571;-66
2022/02/26 00:54:35;;;;;;;8.63;3.80;;;;;;;2.19;80.55;100059.64;1734335;81;21484;-66
2022/02/26 00:57:01;;;;;;;7.72;3.47;;;;;;;2.18;80.53;100062.62;1736985;81;21081;-66
2022/02/26 00:59:28;;;;;;;8.15;3.00;;;;;;;2.20;80.59;100065.21;1728824;81;20898;-66
2022/02/26 01:01:55;;;;;;;9.33;3.30;;;;;;;2.19;80.64;100072.53;1732917;81;21500;-65
2022/02/26 01:04:22;;;;;;;5.40;3.08;;;;;;;2.19;80.67;100069.95;1747240;81;21049;-66
2022/02/26 01:06:49;;;;;;;12.37;4.22;;;;;;;2.19;80.63;100071.24;1738164;81;21144;-66
2022/02/26 01:09:16;;;;;;;8.05;3.70;;;;;;;2.18;80.68;100081.10;1738330;81;21901;-66
2022/02/26 01:11:42;;;;;;;7.00;3.30;;;;;;;2.18;80.73;100073.38;1737191;81;20954;-66
2022/02/26 01:14:09;;;;;;;9.93;3.87;;;;;;;2.20;80.79;100087.11;1729713;81;21041;-65
2022/02/26 01:16:36;;;;;;;6.60;3.02;;;;;;;2.21;80.80;100088.80;1738182;81;20997;-66
2022/02/26 01:19:05;;;;;;;8.73;3.70;;;;;;;2.22;80.85;100096.54;1737996;81;21741;-65
2022/02/26 01:21:31;;;;;;;10.93;3.87;;;;;;;2.22;80.84;100099.55;1733450;81;21063;-66
2022/02/26 01:23:59;;;;;;;7.63;3.50;;;;;;;2.21;80.80;100110.30;1738496;81;21175;-66
2022/02/26 01:26:26;;;;;;;9.10;3.65;;;;;;;2.21;80.87;100111.59;1732704;81;21030;-66
2022/02/26 01:28:54;;;;;;;10.63;3.98;;;;;;;2.23;80.93;100123.16;1738421;80;21142;-65
2022/02/26 01:31:21;;;;;;;8.83;4.70;;;;;;;2.22;80.95;100118.87;1728135;81;24922;-66
2022/02/26 01:33:48;;;;;;;9.30;3.95;;;;;;;2.22;81.01;100118.87;1730799;81;21523;-65
2022/02/26 01:36:15;;;;;;;7.28;3.72;;;;;;;2.22;81.00;100130.47;1738530;81;21017;-65
2022/02/26 01:38:42;;;;;;;7.15;3.83;;;;;;;2.21;81.02;100123.59;1740013;81;21017;-66
2022/02/26 01:41:09;;;;;;;10.00;4.22;;;;;;;2.21;81.08;100127.45;1746335;81;21036;-66
2022/02/26 01:43:36;;;;;;;7.95;3.45;;;;;;;2.20;81.04;100126.60;1747901;81;21587;-66
2022/02/26 01:46:07;;;;;;;6.97;3.72;;;;;;;2.19;81.09;100129.20;1743247;81;21057;-66
2022/02/26 01:48:38;;;;;;;8.00;4.10;;;;;;;2.18;81.08;100135.20;1739759;81;21017;-66
2022/02/26 01:51:07;;;;;;;8.03;3.87;;;;;;;2.15;81.08;100135.23;1704952;83;20951;-66
2022/02/26 01:53:39;;;;;;;8.03;3.85;;;;;;;2.13;81.15;100135.25;1671581;85;21021;-66
2022/02/26 01:56:08;;;;;;;8.13;4.12;;;;;;;2.14;81.19;100141.26;1682022;84;21021;-65
2022/02/26 01:58:36;;;;;;;8.15;3.92;;;;;;;2.12;81.13;100145.55;1677444;84;21111;-65
2022/02/26 02:01:04;;;;;;;7.90;3.75;;;;;;;2.10;81.21;100140.83;1696457;83;20983;-65
2022/02/26 02:03:31;;;;;;;8.88;3.98;;;;;;;2.11;81.23;100138.70;1695475;83;21085;-66
2022/02/26 02:05:59;;;;;;;5.85;4.00;;;;;;;2.07;81.16;100142.14;1694035;82;21626;-66
2022/02/26 02:08:27;;;;;;;7.80;3.55;;;;;;;2.00;81.21;100138.77;1690178;83;21049;-66
2022/02/26 02:10:55;;;;;;;11.80;3.90;;;;;;;1.94;81.12;100134.50;1689834;83;21164;-66
2022/02/26 02:13:22;;;;;;;11.12;4.40;;;;;;;1.90;81.11;100144.38;1695491;82;21511;-65
2022/02/26 02:15:52;;;;;;;8.00;4.10;;;;;;;1.85;81.24;100142.28;1695900;82;21016;-65
2022/02/26 02:18:20;;;;;;;9.10;4.58;;;;;;;1.80;81.31;100141.44;1688300;82;21065;-66
2022/02/26 02:20:47;;;;;;;10.32;4.17;;;;;;;1.79;81.37;100147.44;1694860;83;21519;-66
2022/02/26 02:23:14;;;;;;;8.68;3.83;;;;;;;1.74;81.29;100149.20;1691368;82;21140;-66
2022/02/26 02:25:41;;;;;;;10.32;4.20;;;;;;;1.74;81.41;100164.65;1692396;83;21121;-66
2022/02/26 02:28:09;;;;;;;7.70;3.20;;;;;;;1.70;81.47;100165.07;1701087;82;21033;-66
2022/02/26 02:30:37;;;;;;;8.48;3.98;;;;;;;1.68;81.41;100164.65;1694728;82;20985;-65
2022/02/26 02:33:05;;;;;;;10.15;4.05;;;;;;;1.62;81.48;100170.67;1696371;82;21079;-65
2022/02/26 02:35:41;;;;;;;8.90;4.03;;;;;;;1.61;81.57;100173.27;1696327;82;21090;-65
2022/02/26 02:38:14;;;;;;;8.20;3.92;;;;;;;1.58;81.55;100173.29;1696535;82;20982;-65
2022/02/26 02:40:45;;;;;;;9.08;3.98;;;;;;;1.55;81.57;100178.86;1732316;81;21099;-65
2022/02/26 02:43:12;;;;;;;10.82;3.70;;;;;;;1.51;81.60;100186.18;1734679;81;20998;-66
2022/02/26 02:45:41;;;;;;;6.15;3.87;;;;;;;1.49;81.70;100182.75;1738309;81;21040;-66
2022/02/26 02:48:08;;;;;;;7.50;3.50;;;;;;;1.53;81.83;100187.01;1734204;81;21430;-66
2022/02/26 02:50:35;;;;;;;;;;;;;;;1.52;81.84;100180.16;1715355;83;21072;-65
2022/02/26 02:53:01;;;;;;;16.00;4.00;;;;;;;1.56;81.88;100181.84;1712751;82;20489;-66
2022/02/26 02:55:28;;;;;;;10.60;4.30;;;;;;;1.63;81.94;100192.16;1701891;82;21531;-66
2022/02/26 02:57:55;;;;;;;8.35;4.03;;;;;;;1.63;81.94;100192.16;1674219;84;20928;-66
2022/02/26 03:00:22;;;;;;;8.90;4.20;;;;;;;1.66;82.03;100194.71;1743287;81;21704;-65
2022/02/26 03:02:50;;;;;;;9.68;4.15;;;;;;;1.70;81.97;100200.26;1730947;81;21013;-66
2022/02/26 03:05:20;;;;;;;;;;;;;;;1.70;81.97;100206.70;1741443;81;21495;-66
2022/02/26 03:07:46;;;;;;;9.25;3.95;;;;;;;1.76;82.13;100211.81;1734629;81;20111;-66
2022/02/26 03:10:13;;;;;;;6.57;4.03;;;;;;;1.77;82.04;100219.55;1739204;81;21020;-66
2022/02/26 03:12:40;;;;;;;6.67;3.77;;;;;;;1.82;82.17;100228.55;1733929;81;22516;-66
2022/02/26 03:15:09;;;;;;;7.37;4.10;;;;;;;1.86;81.88;100226.38;1736412;81;28216;-65
2022/02/26 03:17:35;;;;;;;7.47;3.45;;;;;;;1.85;82.05;100232.41;1732348;81;21073;-65
2022/02/26 03:20:04;;;;;;;7.15;3.87;;;;;;;1.87;82.20;100235.81;1741068;81;21029;-66
2022/02/26 03:22:31;;;;;;;9.63;3.75;;;;;;;1.90;82.08;100244.81;1733911;81;20934;-65
2022/02/26 03:24:57;;;;;;;6.58;3.77;;;;;;;1.90;82.13;100249.11;1736853;81;21085;-65
2022/02/26 03:27:24;;;;;;;6.27;3.70;;;;;;;1.96;82.28;100257.69;1738596;81;21277;-66
2022/02/26 03:29:51;;;;;;;11.15;3.80;;;;;;;2.03;82.33;100264.09;1745905;81;21053;-65
2022/02/26 03:32:17;;;;;;;9.27;4.03;;;;;;;2.07;82.34;100267.08;1733350;81;20964;-65
2022/02/26 03:34:45;;;;;;;8.28;3.70;;;;;;;2.11;82.36;100277.80;1738171;81;21040;-66
2022/02/26 03:37:11;;;;;;;;;;;;;;;2.12;82.30;100276.94;1714928;81;21113;-66
2022/02/26 03:39:39;;;;;;;10.40;3.80;;;;;;;2.19;82.45;100286.36;1730947;81;20437;-66
2022/02/26 03:42:08;;;;;;;10.15;4.17;;;;;;;2.21;82.45;100286.79;1729564;81;21029;-65
2022/02/26 03:44:36;;;;;;;8.38;4.47;;;;;;;2.24;82.38;100287.17;1741627;81;21613;-64
2022/02/26 03:47:05;;;;;;;10.70;4.10;;;;;;;2.20;82.29;100295.80;1683110;84;20966;-65
2022/02/26 03:49:32;;;;;;;10.25;4.70;;;;;;;2.16;82.26;100299.27;1696281;83;21987;-64
2022/02/26 03:51:59;;;;;;;7.12;3.85;;;;;;;2.11;82.21;100299.70;1685312;84;21550;-64
2022/02/26 03:54:26;;;;;;;5.78;4.15;;;;;;;2.08;82.20;100297.14;1707299;83;20966;-65
2022/02/26 03:56:56;;;;;;;7.62;4.53;;;;;;;1.99;82.23;100296.30;1703088;83;22253;-64
2022/02/26 03:59:23;;;;;;;8.48;4.12;;;;;;;1.99;82.33;100302.75;1701622;83;21005;-65
2022/02/26 04:01:49;;;;;;;6.58;3.67;;;;;;;1.99;82.39;100305.32;1706721;83;21425;-65
2022/02/26 04:04:16;;;;;;;12.43;4.00;;;;;;;2.03;82.44;100316.90;1703358;83;21074;-64
2022/02/26 04:06:46;;;;;;;6.42;3.62;;;;;;;2.04;82.58;100318.16;1703729;83;21510;-64
2022/02/26 04:09:13;;;;;;;7.80;4.12;;;;;;;2.04;82.47;100319.89;1698378;82;20970;-64
2022/02/26 04:11:40;;;;;;;8.98;3.90;;;;;;;2.01;82.45;100321.61;1695626;83;21036;-64
2022/02/26 04:14:06;;;;;;;4.65;3.37;;;;;;;2.01;82.58;100326.76;1693985;83;21425;-64
2022/02/26 04:16:33;;;;;;;7.22;4.00;;;;;;;2.04;82.55;100335.34;1697256;83;20947;-64
2022/02/26 04:19:00;;;;;;;7.25;4.22;;;;;;;2.01;82.49;100334.48;1696900;83;21010;-64
2022/02/26 04:21:28;;;;;;;7.47;4.10;;;;;;;2.07;82.65;100332.76;1704957;83;21026;-64
2022/02/26 04:23:56;;;;;;;7.28;3.70;;;;;;;2.10;82.70;100332.75;1695794;83;21022;-64
2022/02/26 04:26:23;;;;;;;6.70;4.10;;;;;;;2.10;82.58;100334.03;1691960;83;21430;-64
2022/02/26 04:28:52;;;;;;;8.38;4.60;;;;;;;2.12;82.72;100345.20;1710709;83;21115;-67
2022/02/26 04:31:20;;;;;;;8.30;4.17;;;;;;;2.12;82.64;100340.90;1689551;83;21623;-65
2022/02/26 04:33:47;;;;;;;8.95;4.12;;;;;;;2.13;82.62;100348.19;1696202;83;21507;-65
2022/02/26 04:36:13;;;;;;;6.62;4.37;;;;;;;2.13;82.66;100352.05;1685441;83;21096;-65
2022/02/26 04:38:41;;;;;;;9.20;5.40;;;;;;;2.13;82.69;100354.63;1690832;83;21528;-65
2022/02/26 04:41:08;;;;;;;6.67;4.45;;;;;;;2.15;82.70;100367.09;1692673;83;21065;-65
2022/02/26 04:43:39;;;;;;;9.43;4.30;;;;;;;2.18;82.87;100367.08;1693063;83;21031;-65
2022/02/26 04:46:06;;;;;;;12.65;5.53;;;;;;;2.19;82.79;100373.97;1689775;83;21492;-65
2022/02/26 04:48:33;;;;;;;6.85;4.75;;;;;;;2.24;82.97;100379.94;1690121;83;21023;-65
2022/02/26 04:51:00;;;;;;;7.70;4.37;;;;;;;2.20;82.77;100379.53;1690137;83;21637;-65
2022/02/26 04:53:27;;;;;;;7.72;4.40;;;;;;;2.22;82.91;100389.41;1662891;85;21509;-65
2022/02/26 04:55:54;;;;;;;8.03;3.87;;;;;;;2.18;82.81;100392.84;1680395;84;21037;-64
2022/02/26 04:58:21;;;;;;;6.08;3.92;;;;;;;2.16;82.84;100399.73;1673577;84;21041;-65
2022/02/26 05:00:47;;;;;;;7.60;4.67;;;;;;;2.12;82.87;100401.88;1682152;84;21595;-64
2022/02/26 05:03:14;;;;;;;6.10;3.98;;;;;;;2.13;82.98;100410.02;1671848;84;21164;-65
2022/02/26 05:05:42;;;;;;;7.30;4.30;;;;;;;2.12;82.99;100410.89;1687828;84;21025;-65
2022/02/26 05:08:09;;;;;;;7.15;4.50;;;;;;;2.12;83.03;100415.61;1686839;83;21563;-65
2022/02/26 05:10:36;;;;;;;8.28;3.98;;;;;;;2.14;83.10;100427.22;1686791;84;21001;-65
2022/02/26 05:13:02;;;;;;;9.53;6.37;;;;;;;2.16;83.13;100442.25;1685143;83;21581;-65
2022/02/26 05:15:29;;;;;;;9.90;6.40;;;;;;;2.15;83.07;100450.37;1681467;84;21696;-65
2022/02/26 05:17:56;;;;;;;16.00;8.60;;;;;;;2.17;83.21;100452.97;1684865;84;21010;-65
2022/02/26 05:20:23;;;;;;;21.10;11.83;;;;;;;2.18;83.19;100464.98;1684111;84;21081;-65
2022/02/26 05:22:50;;;;;;;75.92;43.90;;;;;;;2.20;83.28;100467.13;1690903;84;21108;-65
2022/02/26 05:25:17;;;;;;;45.60;24.05;;;;;;;2.21;83.22;100479.14;1687449;84;21571;-65
2022/02/26 05:27:44;;;;;;;27.65;16.87;;;;;;;2.22;83.23;100482.17;1692188;83;21254;-65
2022/02/26 05:30:13;;;;;;;23.62;15.13;;;;;;;2.24;83.34;100488.16;1693201;84;21056;-66
2022/02/26 05:32:41;;;;;;;13.50;8.20;;;;;;;2.27;83.36;100490.76;1693974;84;20994;-67
2022/02/26 05:35:09;;;;;;;14.87;8.20;;;;;;;2.28;83.38;100502.77;1684814;84;20939;-66
2022/02/26 05:37:36;;;;;;;10.32;5.60;;;;;;;2.30;83.31;100511.37;1680775;83;21566;-66
2022/02/26 05:40:05;;;;;;;6.97;4.87;;;;;;;2.30;83.36;100511.37;1688062;84;21024;-66
2022/02/26 05:42:32;;;;;;;14.93;10.05;;;;;;;2.31;83.35;100513.08;1688781;83;21492;-66
2022/02/26 05:44:59;;;;;;;14.70;10.37;;;;;;;2.30;83.40;100524.25;1688869;84;21126;-66
2022/02/26 05:47:26;;;;;;;16.87;8.88;;;;;;;2.29;83.28;100540.55;1713095;82;21722;-66
2022/02/26 05:49:52;;;;;;;9.95;5.40;;;;;;;2.18;83.11;100544.85;1719149;82;21076;-66
2022/02/26 05:52:19;;;;;;;10.08;5.33;;;;;;;2.11;83.13;100554.74;1703453;83;21241;-66
2022/02/26 05:54:46;;;;;;;8.58;5.72;;;;;;;2.09;83.37;100553.88;1703985;83;21026;-66
2022/02/26 05:57:13;;;;;;;8.13;5.40;;;;;;;2.13;83.55;100559.45;1700989;83;21495;-66
2022/02/26 05:59:40;;;;;;;9.63;5.33;;;;;;;2.19;83.67;100559.47;1678472;84;21080;-66
2022/02/26 06:02:07;;;;;;;11.40;5.83;;;;;;;2.26;83.76;100574.06;1692044;84;21037;-66
2022/02/26 06:04:33;;;;;;;11.00;5.60;;;;;;;2.31;83.68;100569.77;1692103;84;22314;-67
2022/02/26 06:07:00;;;;;;;10.18;5.05;;;;;;;2.35;83.68;100579.64;1697802;82;20927;-66
2022/02/26 06:09:27;;;;;;;12.75;6.28;;;;;;;2.33;83.55;100578.37;1702865;82;21110;-67
2022/02/26 06:11:53;;;;;;;11.23;6.27;;;;;;;2.33;83.69;100582.23;1721441;82;21068;-66
2022/02/26 06:14:21;;;;;;;9.70;5.90;;;;;;;2.41;83.89;100579.23;1719985;83;20954;-66
2022/02/26 06:16:48;;;;;;;;;;;;;;;2.49;83.88;100586.09;1723728;82;21919;-67
2022/02/26 06:19:15;;;;;;;12.83;6.83;;;;;;;2.51;83.81;100594.69;1717008;82;20150;-66
2022/02/26 06:21:45;;;;;;;14.43;6.40;;;;;;;2.48;83.64;100597.27;1711415;83;21555;-66
2022/02/26 06:24:14;;;;;;;11.20;6.25;;;;;;;2.46;83.81;100603.30;1699023;83;21653;-66
2022/02/26 06:26:45;;;;;;;11.63;5.97;;;;;;;2.48;83.85;100605.00;1700593;82;21009;-66
2022/02/26 06:29:13;;;;;;;14.60;7.35;;;;;;;2.46;83.83;100608.45;1695020;83;20946;-66
2022/02/26 06:31:41;;;;;;;10.53;6.53;;;;;;;2.48;83.93;100605.00;1699021;83;21004;-67
2022/02/26 06:34:08;;;;;;;17.65;7.53;;;;;;;2.53;83.98;100611.02;1700681;83;21543;-67
2022/02/26 06:36:38;;;;;;;12.35;6.40;;;;;;;2.57;84.02;100610.14;1698732;83;20927;-67
2022/02/26 06:39:05;;;;;;;13.00;7.42;;;;;;;2.58;83.92;100617.04;1698357;83;21131;-67
2022/02/26 06:41:33;;;;;;;14.25;7.53;;;;;;;2.62;84.08;100613.59;1697966;83;21460;-67
2022/02/26 06:44:02;;;;;;;13.75;6.37;;;;;;;2.66;83.96;100619.16;1700637;83;21144;-65
2022/02/26 06:46:29;;;;;;;12.28;6.65;;;;;;;2.69;83.96;100629.06;1700421;83;20970;-67
2022/02/26 06:48:56;;;;;;;12.28;6.97;;;;;;;2.70;83.98;100629.91;1699261;83;20970;-66
2022/02/26 06:51:24;;;;;;;14.73;6.75;;;;;;;2.72;83.98;100638.52;1695781;83;20966;-67
2022/02/26 06:53:54;;;;;;;11.70;6.15;;;;;;;2.82;84.19;100641.94;1696897;83;21081;-67
2022/02/26 06:56:21;;;;;;;8.43;5.97;;;;;;;2.80;83.93;100644.53;1698124;83;20927;-67
2022/02/26 06:58:51;;;;;;;15.10;7.27;;;;;;;2.79;83.91;100650.53;1695338;83;21669;-66
2022/02/26 07:01:18;;;;;;;14.63;6.78;;;;;;;2.80;84.06;100657.43;1699318;83;21014;-66
2022/02/26 07:03:45;;;;;;;15.00;7.47;;;;;;;2.85;84.11;100664.70;1700495;83;21558;-67
2022/02/26 07:06:12;;;;;;;11.53;6.80;;;;;;;2.92;84.33;100673.32;1701691;83;21421;-66
2022/02/26 07:08:39;;;;;;;14.10;6.35;;;;;;;3.04;84.49;100668.58;1698971;83;21037;-67
2022/02/26 07:11:06;;;;;;;11.90;5.62;;;;;;;3.06;84.19;100677.18;1702320;83;21025;-67
2022/02/26 07:13:32;;;;;;;7.95;5.28;;;;;;;3.11;84.23;100678.03;1700493;83;21314;-66
2022/02/26 07:16:02;;;;;;;10.25;6.10;;;;;;;3.12;84.17;100674.59;1700187;83;21013;-67
2022/02/26 07:18:28;;;;;;;10.82;6.33;;;;;;;3.12;84.15;100684.91;1697149;83;21499;-67
2022/02/26 07:20:55;;;;;;;16.17;6.72;;;;;;;3.16;84.30;100695.64;1702064;83;21005;-69
2022/02/26 07:23:23;;;;;;;11.77;6.43;;;;;;;3.25;84.48;100699.52;1670574;84;21153;-65
2022/02/26 07:25:52;;;;;;;12.82;6.00;;;;;;;3.36;84.52;100695.59;1632297;85;21522;-65
2022/02/26 07:51:26;;;;;;;25.20;10.93;;;;;;;3.21;85.72;100731.34;1875518;74;21965;-65
2022/02/26 07:53:53;;;;;;;32.77;16.47;;;;;;;3.14;85.60;100752.88;1847706;77;21445;-64
2022/02/26 07:56:20;;;;;;;39.90;18.10;;;;;;;3.11;85.57;100752.88;1851384;76;21233;-65
2022/02/26 07:58:46;;;;;;;41.53;17.27;;;;;;;3.09;85.35;100736.52;1853310;76;21024;-64
2022/02/26 08:01:13;;;;;;;35.98;16.48;;;;;;;3.09;85.35;100736.52;1849383;76;21339;-65
2022/02/26 08:03:40;;;;;;;35.25;15.75;;;;;;;3.21;85.33;100751.98;1856136;75;21060;-66
2022/02/26 08:06:06;;;;;;;32.53;14.87;;;;;;;3.27;85.35;100757.58;1852545;76;20916;-66
2022/02/26 08:08:33;;;;;;;22.17;12.23;;;;;;;3.36;85.41;100773.93;1849570;76;21606;-64
2022/02/26 08:11:00;;;;;;;28.60;14.03;;;;;;;3.43;85.10;100794.57;1847712;77;21001;-64
2022/02/26 08:13:27;;;;;;;26.50;11.60;;;;;;;3.25;84.61;100797.59;1853979;76;21052;-64
2022/02/26 08:15:53;;;;;;;24.15;15.13;;;;;;;3.26;85.08;100795.44;1849024;75;21759;-64
2022/02/26 08:18:20;;;;;;;23.60;11.70;;;;;;;3.36;85.30;100803.62;1853102;75;20896;-64
2022/02/26 08:20:47;;;;;;;20.57;11.77;;;;;;;3.48;85.45;100807.05;1849550;75;21123;-64
2022/02/26 08:23:13;;;;;;;19.90;10.27;;;;;;;3.60;85.47;100810.91;1840917;76;21571;-65
2022/02/26 08:25:40;;;;;;;20.05;10.63;;;;;;;3.66;85.31;100816.48;1844719;75;21385;-64
2022/02/26 08:28:07;;;;;;;18.25;11.05;;;;;;;3.67;85.28;100824.25;1846836;76;20920;-65
2022/02/26 08:30:34;;;;;;;23.80;12.13;;;;;;;3.73;85.39;100829.40;1853113;75;20980;-65
2022/02/26 08:33:01;;;;;;;21.33;11.50;;;;;;;3.78;85.49;100832.84;1838850;75;21247;-66
2022/02/26 08:35:28;;;;;;;21.10;10.95;;;;;;;3.87;85.49;100837.13;1841154;75;21192;-65
2022/02/26 08:37:54;;;;;;;19.50;9.45;;;;;;;3.90;85.44;100841.44;1847215;75;20994;-66
2022/02/26 08:40:21;;;;;;;22.95;9.23;;;;;;;3.95;85.33;100843.55;1846950;75;20973;-65
2022/02/26 08:42:48;;;;;;;25.92;10.98;;;;;;;3.98;85.40;100850.03;1851004;75;21632;-65
2022/02/26 08:45:15;;;;;;;19.98;10.25;;;;;;;4.07;85.54;100857.75;1847707;75;21043;-65
2022/02/26 08:47:43;;;;;;;25.25;10.75;;;;;;;4.11;85.45;100860.74;1852537;75;21479;-64
2022/02/26 08:50:14;;;;;;;22.90;9.50;;;;;;;4.17;85.57;100867.22;1856435;76;21605;-65
2022/02/26 08:52:42;;;;;;;22.70;10.25;;;;;;;4.23;85.53;100867.19;1859140;77;20946;-65
2022/02/26 08:55:10;;;;;;;16.42;10.08;;;;;;;4.30;85.59;100873.63;1857405;76;21009;-64
2022/02/26 08:57:38;;;;;;;19.48;8.58;;;;;;;4.37;85.68;100875.31;1822731;77;21886;-65
2022/02/26 09:00:09;;;;;;;;;;;;;;;4.40;85.38;100875.33;1792586;78;20997;-65
2022/02/26 09:02:36;;;;;;;15.98;7.17;;;;;;;4.36;85.29;100880.92;1800839;79;20130;-67
2022/02/26 09:05:04;;;;;;;11.28;7.62;;;;;;;4.25;85.18;100877.08;1803483;78;20923;-65
2022/02/26 09:07:32;;;;;;;15.18;6.10;;;;;;;4.20;85.17;100894.34;1802850;78;21011;-64
2022/02/26 09:09:59;;;;;;;9.00;5.75;;;;;;;3.97;84.81;100887.05;1819108;77;21138;-65
2022/02/26 09:12:26;;;;;;;12.10;5.87;;;;;;;3.58;85.47;100896.55;1822878;77;21030;-65
2022/02/26 09:14:53;;;;;;;12.10;6.00;;;;;;;3.58;85.47;100896.55;1823590;77;21001;-66
2022/02/26 09:17:21;;;;;;;10.25;6.22;;;;;;;3.50;85.56;100898.27;1823747;77;20995;-67
2022/02/26 09:19:48;;;;;;;9.03;5.75;;;;;;;3.47;85.86;100903.00;1822619;77;21099;-66
2022/02/26 09:22:15;;;;;;;15.65;5.35;;;;;;;3.41;86.73;100904.73;1823634;77;21426;-66
2022/02/26 09:24:42;;;;;;;9.33;5.50;;;;;;;3.33;86.15;100908.58;1823833;77;20956;-67
2022/02/26 09:27:08;;;;;;;14.58;5.95;;;;;;;3.36;86.31;100909.47;1789938;78;20977;-67
2022/02/26 09:29:35;;;;;;;17.37;7.40;;;;;;;3.40;86.25;100921.09;1821982;77;20967;-66
2022/02/26 09:32:03;;;;;;;13.73;6.17;;;;;;;3.44;86.40;100924.09;1822305;77;21708;-66
2022/02/26 09:34:30;;;;;;;17.45;8.58;;;;;;;3.43;86.35;100930.98;1814251;78;21107;-67
2022/02/26 09:36:57;;;;;;;10.25;6.78;;;;;;;3.41;86.56;100933.13;1816707;78;21001;-65
2022/02/26 09:39:24;;;;;;;15.05;6.95;;;;;;;3.38;86.35;100938.29;1821665;78;20959;-66
2022/02/26 09:41:52;;;;;;;12.90;7.37;;;;;;;3.29;86.47;100948.17;1821530;78;20892;-66
2022/02/26 09:44:20;;;;;;;15.83;7.55;;;;;;;3.21;86.71;100950.72;1822351;78;20991;-66
2022/02/26 09:46:49;;;;;;;12.90;7.33;;;;;;;3.18;86.61;100950.72;1819878;77;21181;-64
2022/02/26 09:49:17;;;;;;;16.27;8.10;;;;;;;3.24;86.83;100952.45;1818018;78;21056;-66
2022/02/26 09:51:45;;;;;;;17.42;7.62;;;;;;;3.26;86.80;100963.66;1814820;77;21553;-65
2022/02/26 09:54:16;;;;;;;15.32;7.85;;;;;;;3.28;87.51;100961.52;1813205;77;21077;-64
2022/02/26 09:56:44;;;;;;;14.38;7.85;;;;;;;3.26;87.04;100956.77;1795892;78;20975;-65
2022/02/26 09:59:11;;;;;;;14.25;7.83;;;;;;;3.28;87.19;100958.08;1779057;80;21054;-65
2022/02/26 10:02:00;;;;;;;;;;;;;;;3.36;87.18;100964.97;1818239;77;21065;-64
2022/02/26 10:04:30;;;;;;;14.70;6.12;;;;;;;3.49;87.26;100961.11;1791372;78;20664;-63
2022/02/26 10:07:20;;;;;;;13.80;4.85;;;;;;;3.57;86.97;100961.55;1803680;78;21602;-65
2022/02/26 10:09:46;;;;;;;11.63;5.28;;;;;;;3.63;86.92;100972.31;1764287;79;21356;-67
2022/02/26 10:12:27;;;;;;;12.13;4.25;;;;;;;3.68;86.77;100977.06;1808992;77;21344;-63
2022/02/26 10:14:58;;;;;;;15.13;4.08;;;;;;;3.72;86.78;100977.48;1777859;80;21784;-65
2022/02/26 10:17:35;;;;;;;10.70;4.62;;;;;;;3.85;86.82;100980.09;1812663;77;21135;-64
2022/02/26 10:20:18;;;;;;;11.73;4.65;;;;;;;3.99;86.81;100983.53;1818788;77;21072;-65
2022/02/26 10:22:52;;;;;;;12.25;4.60;;;;;;;4.09;86.61;100986.56;1812590;77;21076;-65
2022/02/26 10:25:25;;;;;;;12.35;4.70;;;;;;;4.20;86.52;100988.70;1816436;78;21313;-65
2022/02/26 10:27:59;;;;;;;9.53;4.03;;;;;;;4.43;86.88;100992.98;1814341;77;20918;-69
2022/02/26 10:30:34;;;;;;;7.87;3.30;;;;;;;4.58;86.35;100998.11;1810032;77;21022;-66
2022/02/26 10:33:23;;;;;;;13.75;3.35;;;;;;;4.79;86.19;100988.55;1814748;77;21610;-65
2022/02/26 10:35:57;;;;;;;9.28;4.15;;;;;;;4.91;86.13;100991.12;1816698;77;21020;-66
2022/02/26 10:38:27;;;;;;;10.75;3.70;;;;;;;5.09;85.59;100994.91;1815055;78;21090;-65
2022/02/26 10:41:03;;;;;;;8.63;3.72;;;;;;;5.14;85.36;100999.64;1752057;80;21014;-64
2022/02/26 10:43:49;;;;;;;9.38;4.15;;;;;;;5.06;85.21;100996.22;1750562;80;21688;-64
2022/02/26 10:46:28;;;;;;;11.30;4.53;;;;;;;5.21;85.69;100997.02;1825831;77;20971;-65
2022/02/26 10:49:09;;;;;;;8.85;4.05;;;;;;;5.39;85.24;101004.70;1845465;77;21064;-65
2022/02/26 10:51:39;;;;;;;9.73;3.80;;;;;;;5.45;85.52;101004.66;1848276;76;21135;-64
2022/02/26 10:54:09;;;;;;;14.70;5.35;;;;;;;5.57;85.12;101010.20;1845891;76;20967;-64
2022/02/26 10:56:39;;;;;;;12.00;5.47;;;;;;;5.61;84.67;101013.22;1833029;76;21501;-65
2022/02/26 10:59:09;;;;;;;8.63;3.33;;;;;;;5.57;84.83;101014.98;1844035;76;20934;-64
2022/02/26 11:01:36;;;;;;;8.20;2.83;;;;;;;5.73;85.02;101014.86;1840926;76;21014;-64
2022/02/26 11:04:04;;;;;;;6.67;2.10;;;;;;;5.72;83.71;101026.11;1841201;76;21687;-65
2022/02/26 11:06:33;;;;;;;9.23;2.50;;;;;;;5.59;83.23;101027.46;1834119;76;21052;-64
2022/02/26 11:09:00;;;;;;;5.17;2.33;;;;;;;5.56;83.82;101023.59;1836564;76;20980;-70
2022/02/26 11:11:43;;;;;;;7.60;3.00;;;;;;;5.70;84.06;101025.25;1877129;74;22118;-66
2022/02/26 11:14:10;;;;;;;6.70;2.20;;;;;;;5.76;84.33;101035.57;1842012;77;21017;-65
2022/02/26 11:16:39;;;;;;;4.85;1.50;;;;;;;5.83;83.74;101034.67;1848283;75;22470;-66
2022/02/26 11:19:09;;;;;;;5.67;2.40;;;;;;;5.69;83.53;101040.39;1850587;75;21012;-66
2022/02/26 11:21:37;;;;;;;7.22;2.00;;;;;;;5.45;82.33;101048.70;1845149;77;20911;-66
2022/02/26 11:24:05;;;;;;;5.97;2.17;;;;;;;5.22;82.84;101055.73;1851578;77;21531;-65
2022/02/26 11:28:59;;;;;;;10.35;3.00;;;;;;;4.95;83.35;101048.47;1870138;74;22044;-65
2022/02/26 11:31:46;;;;;;;6.55;2.45;;;;;;;4.92;83.63;101065.30;1845628;75;20928;-64
2022/02/26 11:34:26;;;;;;;9.68;3.37;;;;;;;4.95;82.84;101062.70;1842973;75;21460;-67
2022/02/26 11:37:04;;;;;;;5.67;2.40;;;;;;;4.94;82.96;101063.58;1848881;75;20975;-65
2022/02/26 11:39:47;;;;;;;6.33;2.62;;;;;;;4.91;83.08;101074.80;1836162;76;20977;-66
2022/02/26 11:42:24;;;;;;;4.80;1.90;;;;;;;4.94;83.11;101080.41;1848812;75;21646;-65
2022/02/26 11:45:00;;;;;;;;;;;;;;;4.82;82.55;101083.03;1848929;76;20998;-64
2022/02/26 11:47:52;;;;;;;14.60;2.02;;;;;;;4.70;81.90;101089.95;1851552;75;21222;-64
2022/02/26 11:50:29;;;;;;;9.33;2.98;;;;;;;4.59;82.95;101085.19;1844642;75;21044;-67
2022/02/26 11:53:16;;;;;;;7.22;2.98;;;;;;;4.43;82.46;101096.44;1851180;75;20982;-64
2022/02/26 11:55:54;;;;;;;5.92;2.20;;;;;;;4.21;82.63;101104.17;1848952;76;20958;-67
2022/02/26 11:58:34;;;;;;;10.88;2.90;;;;;;;4.07;83.05;101108.47;1845574;76;21558;-68
2022/02/26 12:01:13;;;;;;;8.53;2.10;;;;;;;3.99;83.04;101104.56;1805739;78;21163;-67
2022/02/26 12:03:49;;;;;;;5.90;2.20;;;;;;;4.05;83.23;101110.17;1784730;79;21503;-66
2022/02/26 12:06:30;;;;;;;4.25;1.72;;;;;;;4.05;83.12;101105.01;1803580;77;21004;-62